createdAt,value
2018-03-15T00:00:55.434Z,12.67
2018-03-15T00:03:28.871Z,14.00
2018-03-15T00:05:57.187Z,12.90
2018-03-15T00:08:24.788Z,14.70
2018-03-15T00:10:53.321Z,14.30
2018-03-15T00:13:21.929Z,14.03
2018-03-15T00:15:50.329Z,13.80
2018-03-15T00:18:18.359Z,13.60
2018-03-15T00:20:46.755Z,15.30
2018-03-15T00:23:14.367Z,14.60
2018-03-15T00:25:42.664Z,13.13
2018-03-15T00:28:10.194Z,14.53
2018-03-15T00:30:39.083Z,15.33
2018-03-15T00:33:07.394Z,13.80
2018-03-15T00:35:34.902Z,14.63
2018-03-15T00:38:02.863Z,15.03
2018-03-15T00:40:30.507Z,15.37
2018-03-15T00:42:58.117Z,14.13
2018-03-15T00:45:27.293Z,14.83
2018-03-15T00:47:54.856Z,14.73
2018-03-15T00:50:23.386Z,15.17
2018-03-15T00:52:50.906Z,15.13
2018-03-15T00:55:18.435Z,14.80
2018-03-15T00:57:45.949Z,13.73
2018-03-15T01:00:13.473Z,15.13
2018-03-15T01:02:41.429Z,15.43
2018-03-15T01:05:09.019Z,14.90
2018-03-15T01:07:37.338Z,14.77
2018-03-15T01:10:04.853Z,14.63
2018-03-15T01:12:37.242Z,15.27
2018-03-15T01:15:05.528Z,14.53
2018-03-15T01:17:33.065Z,15.53
2018-03-15T01:20:01.344Z,15.77
2018-03-15T01:22:29.626Z,15.97
2018-03-15T01:24:57.905Z,15.20
2018-03-15T01:27:26.198Z,16.50
2018-03-15T01:29:53.747Z,16.03
2018-03-15T01:32:22.018Z,16.17
2018-03-15T01:34:50.297Z,16.60
2018-03-15T01:37:18.736Z,16.37
2018-03-15T01:39:47.024Z,14.97
2018-03-15T01:42:14.536Z,16.07
2018-03-15T01:44:42.050Z,15.63
2018-03-15T01:47:09.572Z,15.60
2018-03-15T02:06:47.234Z,16.90
2018-03-15T02:09:15.578Z,17.17
2018-03-15T02:11:43.951Z,18.53
2018-03-15T02:14:11.508Z,18.57
2018-03-15T02:16:39.072Z,18.03
2018-03-15T02:19:10.814Z,18.87
2018-03-15T02:21:38.690Z,18.90
2018-03-15T02:24:06.213Z,20.33
2018-03-15T02:26:35.099Z,18.67
2018-03-15T02:29:03.369Z,20.50
2018-03-15T02:44:31.875Z,21.23
2018-03-15T02:46:59.413Z,22.00
2018-03-15T02:49:27.685Z,21.43
2018-03-15T02:51:55.640Z,22.43
2018-03-15T02:54:23.809Z,21.53
2018-03-15T02:56:51.345Z,20.77
2018-03-15T02:59:18.886Z,21.33
2018-03-15T03:01:46.450Z,19.80
2018-03-15T03:04:13.953Z,20.50
2018-03-15T03:06:46.134Z,20.53
2018-03-15T03:09:13.659Z,19.60
2018-03-15T03:11:41.168Z,19.63
2018-03-15T03:14:08.696Z,18.77
2018-03-15T03:16:36.240Z,19.07
2018-03-15T03:19:03.758Z,19.20
2018-03-15T03:21:31.381Z,18.97
2018-03-15T03:26:33.844Z,19.07
2018-03-15T03:29:01.356Z,18.57
2018-03-15T03:31:30.053Z,18.23
2018-03-15T03:33:58.235Z,18.67
2018-03-15T03:36:26.100Z,18.60
2018-03-15T03:38:54.174Z,18.27
2018-03-15T03:41:22.136Z,19.27
2018-03-15T03:43:49.641Z,19.17
2018-03-15T03:46:18.076Z,20.60
2018-03-15T03:48:45.597Z,20.43
2018-03-15T03:51:13.241Z,20.63
2018-03-15T03:53:40.760Z,20.10
2018-03-15T03:56:08.289Z,19.43
2018-03-15T03:58:40.141Z,19.10
2018-03-15T04:01:09.137Z,20.57
2018-03-15T04:03:37.837Z,21.37
2018-03-15T04:06:06.113Z,22.47
2018-03-15T04:08:34.396Z,19.90
2018-03-15T04:11:02.664Z,23.03
2018-03-15T04:13:30.952Z,21.83
2018-03-15T04:15:58.943Z,21.17
2018-03-15T04:18:28.061Z,21.77
2018-03-15T04:20:55.573Z,22.10
2018-03-15T04:23:23.096Z,24.20
2018-03-15T04:25:54.253Z,22.17
2018-03-15T04:28:21.809Z,24.67
2018-03-15T04:30:49.334Z,23.60
2018-03-15T04:33:16.992Z,23.60
2018-03-15T04:35:44.553Z,25.73
2018-03-15T04:38:12.097Z,26.23
2018-03-15T04:53:44.972Z,23.97
2018-03-15T04:56:16.500Z,27.47
2018-03-15T04:58:45.213Z,28.47
2018-03-15T05:01:12.750Z,28.20
2018-03-15T05:03:40.266Z,26.50
2018-03-15T05:08:50.770Z,28.37
2018-03-15T08:20:56.888Z,13.13
2018-03-15T08:23:24.419Z,16.53
2018-03-15T08:25:52.684Z,16.17
2018-03-15T08:28:21.155Z,15.27
2018-03-15T08:30:48.742Z,16.20
2018-03-15T08:33:16.261Z,16.30
2018-03-15T08:35:52.390Z,15.40
2018-03-15T08:38:19.909Z,14.20
2018-03-15T08:40:48.191Z,13.07
2018-03-15T08:43:16.475Z,12.90
2018-03-15T08:45:44.005Z,13.20
2018-03-15T08:48:13.175Z,13.53
2018-03-15T08:50:40.684Z,12.13
2018-03-15T08:53:09.893Z,12.83
2018-03-15T08:55:37.428Z,12.43
2018-03-15T08:58:06.266Z,12.57
2018-03-15T09:02:30.439Z,13.00
2018-03-15T09:05:02.621Z,13.30
2018-03-15T09:07:34.013Z,13.87
2018-03-15T09:10:02.399Z,14.47
2018-03-15T09:12:29.962Z,14.63
2018-03-15T09:14:57.484Z,15.23
2018-03-15T09:17:29.515Z,15.07
2018-03-15T09:19:57.200Z,15.10
2018-03-15T09:22:24.739Z,14.80
2018-03-15T09:24:52.265Z,14.47
2018-03-15T09:27:20.384Z,15.30
2018-03-15T09:29:48.047Z,15.33
2018-03-15T09:32:15.796Z,14.27
2018-03-15T09:34:43.683Z,14.47
2018-03-15T09:37:11.695Z,15.67
2018-03-15T09:39:39.382Z,15.00
2018-03-15T09:51:53.607Z,14.47
2018-03-15T09:54:21.154Z,15.00
2018-03-15T09:56:49.445Z,14.97
2018-03-15T09:59:17.006Z,15.03
2018-03-15T10:01:45.498Z,15.70
2018-03-15T10:04:13.917Z,15.63
2018-03-15T10:06:41.457Z,15.70
2018-03-15T10:09:09.189Z,16.10
2018-03-15T10:11:37.334Z,14.13
2018-03-15T10:14:05.477Z,14.67
2018-03-15T10:16:33.049Z,14.60
2018-03-15T10:19:02.017Z,14.70
2018-03-15T10:21:29.622Z,15.23
2018-03-15T10:23:57.196Z,15.30
2018-03-15T10:26:25.561Z,14.30
2018-03-15T10:28:53.960Z,14.50
2018-03-15T10:31:22.256Z,15.07
2018-03-15T10:33:49.804Z,15.50
2018-03-15T10:36:17.354Z,15.43
2018-03-15T10:38:45.724Z,15.63
2018-03-15T10:41:14.048Z,17.20
2018-03-15T10:43:42.426Z,15.90
2018-03-15T10:46:09.964Z,15.73
2018-03-15T10:48:37.643Z,17.07
2018-03-15T10:51:07.390Z,15.97
2018-03-15T10:53:35.498Z,16.00
2018-03-15T10:56:04.523Z,16.23
2018-03-15T10:58:32.074Z,16.63
2018-03-15T11:01:05.434Z,15.43
2018-03-15T11:03:43.853Z,16.50
2018-03-15T11:06:12.219Z,14.93
2018-03-15T11:08:39.805Z,15.97
2018-03-15T11:11:08.130Z,15.83
2018-03-15T11:13:36.285Z,15.57
2018-03-15T11:16:03.841Z,15.83
2018-03-15T11:18:31.396Z,15.70
2018-03-15T11:20:58.956Z,15.27
2018-03-15T11:23:28.342Z,15.10
2018-03-15T11:25:55.905Z,14.57
2018-03-15T11:28:27.897Z,16.10
2018-03-15T11:30:55.500Z,15.17
2018-03-15T11:33:23.031Z,15.30
2018-03-15T11:35:51.178Z,14.43
2018-03-15T11:38:18.737Z,16.67
2018-03-15T11:40:50.457Z,15.00
2018-03-15T11:43:18.001Z,15.53
2018-03-15T11:45:49.470Z,15.70
2018-03-15T11:48:21.074Z,16.63
2018-03-15T11:50:49.787Z,15.93
2018-03-15T11:53:18.083Z,15.03
2018-03-15T11:55:46.530Z,15.80
2018-03-15T11:58:14.395Z,15.23
2018-03-15T12:00:42.003Z,16.53
2018-03-15T12:03:09.478Z,14.90
2018-03-15T12:05:38.021Z,15.57
2018-03-15T12:08:05.567Z,15.83
2018-03-15T12:10:33.237Z,16.50
2018-03-15T12:13:00.809Z,15.70
2018-03-15T12:15:28.340Z,15.73
2018-03-15T12:18:00.094Z,16.00
2018-03-15T12:20:27.630Z,16.00
2018-03-15T12:22:55.953Z,16.47
2018-03-15T12:25:24.939Z,16.17
2018-03-15T12:27:57.218Z,16.87
2018-03-15T12:30:25.352Z,16.33
2018-03-15T12:32:52.879Z,16.60
2018-03-15T12:35:21.290Z,16.80
2018-03-15T12:37:49.654Z,17.40
2018-03-15T12:40:18.518Z,16.47
2018-03-15T12:42:46.037Z,16.27
2018-03-15T12:45:15.386Z,17.00
2018-03-15T12:47:43.497Z,16.40
2018-03-15T12:50:11.221Z,17.57
2018-03-15T12:52:40.388Z,18.50
2018-03-15T12:55:07.904Z,18.77
2018-03-15T12:57:36.185Z,18.10
2018-03-15T13:00:08.380Z,19.10
2018-03-15T13:02:35.926Z,17.00
2018-03-15T13:05:03.443Z,17.45
2018-03-15T13:07:30.967Z,18.00
2018-03-15T13:09:58.487Z,18.23
2018-03-15T13:12:26.801Z,16.98
2018-03-15T13:14:54.330Z,17.92
2018-03-15T13:17:22.650Z,18.10
2018-03-15T13:19:50.430Z,18.07
2018-03-15T13:22:18.001Z,20.42
2018-03-15T13:24:46.570Z,19.67
2018-03-15T13:27:14.094Z,20.40
2018-03-15T13:29:42.440Z,19.70
2018-03-15T13:32:15.303Z,19.87
2018-03-15T13:34:42.845Z,20.23
2018-03-15T13:37:10.361Z,20.43
2018-03-15T13:39:38.634Z,20.80
2018-03-15T13:42:06.918Z,20.07
2018-03-15T13:44:34.435Z,20.20
2018-03-15T13:47:01.981Z,19.70
2018-03-15T13:49:29.511Z,21.20
2018-03-15T13:51:57.117Z,19.93
2018-03-15T13:54:24.600Z,19.60
2018-03-15T13:56:52.899Z,20.17
2018-03-15T13:59:20.427Z,20.73
2018-03-15T14:01:48.644Z,20.73
2018-03-15T14:04:20.209Z,21.37
2018-03-15T14:06:47.754Z,21.00
2018-03-15T14:09:19.997Z,18.77
2018-03-15T14:11:52.829Z,19.17
2018-03-15T14:14:20.722Z,19.53
2018-03-15T14:16:48.240Z,20.13
2018-03-15T14:19:19.813Z,19.67
2018-03-15T14:21:47.341Z,19.70
2018-03-15T14:24:19.577Z,21.13
2018-03-15T14:26:47.121Z,19.17
2018-03-15T14:29:14.682Z,18.80
2018-03-15T14:31:43.231Z,19.10
2018-03-15T14:34:10.744Z,18.23
2018-03-15T14:36:41.462Z,18.13
2018-03-15T14:39:09.008Z,18.13
2018-03-15T14:41:36.585Z,17.40
2018-03-15T14:44:08.063Z,19.00
2018-03-15T14:46:36.596Z,19.23
2018-03-15T14:49:05.004Z,18.30
2018-03-15T14:51:33.333Z,19.53
2018-03-15T14:54:00.858Z,17.93
2018-03-15T14:56:32.388Z,18.93
2018-03-15T14:59:05.261Z,19.43
2018-03-15T15:01:33.447Z,18.60
2018-03-15T15:04:00.975Z,18.40
2018-03-15T15:06:28.519Z,17.73
2018-03-15T15:09:00.407Z,18.77
2018-03-15T15:11:27.960Z,17.47
2018-03-15T15:14:27.240Z,18.00
2018-03-15T15:16:54.802Z,18.10
2018-03-15T15:19:28.392Z,18.07
2018-03-15T15:21:56.251Z,17.60
2018-03-15T15:24:24.532Z,18.20
2018-03-15T15:26:52.065Z,18.10
2018-03-15T15:29:19.635Z,17.00
2018-03-15T15:31:48.227Z,16.57
2018-03-15T15:34:16.516Z,17.50
2018-03-15T15:36:44.043Z,17.30
2018-03-15T15:39:11.577Z,17.00
2018-03-15T15:41:39.085Z,17.80
2018-03-15T15:44:07.390Z,18.10
2018-03-15T15:46:34.902Z,18.03
2018-03-15T15:49:02.465Z,17.37
2018-03-15T15:51:29.979Z,17.13
2018-03-15T15:53:57.485Z,17.33
2018-03-15T15:56:25.792Z,16.87
2018-03-15T15:58:53.341Z,17.43
2018-03-15T16:01:20.838Z,17.47
2018-03-15T16:03:48.931Z,16.50
2018-03-15T16:06:16.472Z,16.87
2018-03-15T16:08:44.745Z,17.67
2018-03-15T16:11:12.289Z,17.90
2018-03-15T16:13:40.394Z,17.37
2018-03-15T16:16:07.910Z,25.10
2018-03-15T16:18:35.441Z,17.50
2018-03-15T16:21:03.721Z,17.10
2018-03-15T16:23:32.054Z,17.77
2018-03-15T16:25:59.566Z,17.97
2018-03-15T16:28:27.858Z,17.67
2018-03-15T16:30:55.376Z,17.37
2018-03-15T16:33:22.902Z,18.20
2018-03-15T16:35:50.407Z,18.27
2018-03-15T16:38:17.933Z,18.47
2018-03-15T16:40:45.476Z,17.80
2018-03-15T16:43:13.266Z,18.13
2018-03-15T16:45:40.665Z,17.67
2018-03-15T16:48:09.607Z,18.33
2018-03-15T16:50:37.133Z,18.67
2018-03-15T16:53:04.644Z,18.70
2018-03-15T16:55:32.169Z,18.00
2018-03-15T16:57:59.720Z,19.43
2018-03-15T17:00:27.257Z,19.30
2018-03-15T17:02:55.534Z,18.53
2018-03-15T17:05:27.753Z,19.33
2018-03-15T17:07:55.317Z,18.27
2018-03-15T17:10:22.810Z,20.13
2018-03-15T17:12:51.122Z,19.73
2018-03-15T17:15:18.648Z,19.00
2018-03-15T17:17:46.937Z,19.53
2018-03-15T17:20:15.229Z,19.23
2018-03-15T17:22:42.802Z,20.20
2018-03-15T17:25:10.340Z,20.10
2018-03-15T17:27:38.900Z,20.70
2018-03-15T17:30:08.054Z,20.80
2018-03-15T17:32:36.555Z,20.83
2018-03-15T17:35:04.076Z,20.90
2018-03-15T17:37:31.590Z,20.07
2018-03-15T17:39:59.117Z,21.30
2018-03-15T17:42:26.624Z,20.70
2018-03-15T17:44:54.927Z,19.57
2018-03-15T17:47:22.452Z,21.07
2018-03-15T17:49:50.770Z,19.97
2018-03-15T17:52:18.396Z,20.63
2018-03-15T17:54:45.864Z,19.63
2018-03-15T17:57:14.163Z,21.30
2018-03-15T17:59:41.886Z,19.90
2018-03-15T18:02:09.436Z,19.60
2018-03-15T18:04:37.045Z,20.73
2018-03-15T18:07:04.564Z,21.37
2018-03-15T18:09:32.878Z,19.47
2018-03-15T18:12:00.498Z,19.87
2018-03-15T18:14:28.033Z,18.47
2018-03-15T18:16:56.097Z,20.00
2018-03-15T18:19:25.214Z,19.37
2018-03-15T18:21:52.765Z,19.80
2018-03-15T18:24:20.296Z,18.53
2018-03-15T18:26:47.843Z,18.00
2018-03-15T18:29:15.364Z,19.17
2018-03-15T18:31:42.906Z,18.23
2018-03-15T18:34:10.429Z,18.00
2018-03-15T18:36:37.994Z,18.90
2018-03-15T18:39:05.512Z,18.23
2018-03-15T18:41:33.036Z,18.17
2018-03-15T18:44:00.562Z,17.47
2018-03-15T18:46:28.112Z,17.80
2018-03-15T18:48:55.637Z,17.63
2018-03-15T18:51:23.137Z,17.27
2018-03-15T18:53:51.301Z,17.37
2018-03-15T18:56:19.715Z,16.97
2018-03-15T18:58:47.245Z,17.30
2018-03-15T19:01:14.765Z,16.17
2018-03-15T19:03:42.318Z,16.77
2018-03-15T19:06:09.874Z,16.67
2018-03-15T19:08:37.387Z,16.77
2018-03-15T19:11:05.771Z,17.97
2018-03-15T19:13:33.306Z,18.33
2018-03-15T19:16:01.596Z,18.00
2018-03-15T19:18:29.998Z,18.40
2018-03-15T19:20:57.586Z,19.13
2018-03-15T19:23:25.144Z,18.73
2018-03-15T19:25:52.748Z,18.47
2018-03-15T19:28:20.264Z,17.87
2018-03-15T19:43:48.599Z,19.63
2018-03-15T19:46:16.136Z,18.67
2018-03-15T19:48:44.448Z,18.77
2018-03-15T19:51:12.011Z,19.63
2018-03-15T19:53:39.541Z,19.70
2018-03-15T19:56:11.794Z,19.90
2018-03-15T19:58:40.948Z,20.43
2018-03-15T20:01:09.180Z,21.47
2018-03-15T20:03:37.523Z,20.17
2018-03-15T20:06:05.729Z,20.10
2018-03-15T20:08:35.474Z,20.30
2018-03-15T20:11:09.362Z,20.67
2018-03-15T20:13:36.905Z,21.87
2018-03-15T20:16:05.030Z,21.40
2018-03-15T20:18:33.601Z,21.77
2018-03-15T20:21:01.564Z,20.67
2018-03-15T20:23:34.774Z,21.53
2018-03-15T20:26:02.365Z,20.23
2018-03-15T20:28:35.482Z,20.70
2018-03-15T20:31:05.322Z,21.20
2018-03-15T20:33:38.490Z,21.10
2018-03-15T20:36:06.798Z,22.03
2018-03-15T20:38:35.231Z,26.27
2018-03-15T20:41:09.176Z,22.07
2018-03-15T20:43:36.699Z,21.60
2018-03-15T20:46:10.715Z,23.60
2018-03-15T20:48:43.880Z,24.47
2018-03-15T20:51:15.575Z,23.40
2018-03-15T20:53:43.840Z,25.00
2018-03-15T20:56:13.077Z,25.53
2018-03-15T20:58:40.646Z,25.23
2018-03-15T21:01:08.196Z,26.10
2018-03-15T21:03:35.750Z,26.97
2018-03-15T21:06:03.278Z,26.87
2018-03-15T21:08:31.662Z,28.77
2018-03-15T21:10:59.953Z,29.40
2018-03-15T21:13:28.246Z,29.43
2018-03-15T21:15:56.223Z,28.47
2018-03-15T21:18:23.833Z,27.83
2018-03-15T21:20:51.389Z,29.27
2018-03-15T21:23:22.950Z,28.73
2018-03-15T21:25:51.275Z,28.40
2018-03-15T21:28:19.569Z,32.40
2018-03-15T21:30:47.079Z,31.43
2018-03-15T21:33:17.498Z,32.03
2018-03-15T21:35:49.797Z,31.90
2018-03-15T21:38:17.312Z,32.30
2018-03-15T21:40:44.894Z,31.33
2018-03-15T21:43:13.221Z,30.77
2018-03-15T21:45:41.500Z,31.93
2018-03-15T21:48:09.006Z,33.30
2018-03-15T21:50:37.294Z,33.90
2018-03-15T21:53:05.592Z,32.67
2018-03-15T21:55:33.137Z,32.53
2018-03-15T21:58:00.657Z,33.13
2018-03-15T22:00:28.205Z,33.90
2018-03-15T22:02:56.205Z,33.87
2018-03-15T22:05:24.503Z,32.50
2018-03-15T22:07:52.028Z,33.80
2018-03-15T22:10:20.272Z,33.33
2018-03-15T22:12:47.788Z,32.93
2018-03-15T22:15:16.074Z,35.37
2018-03-15T22:17:44.316Z,34.23
2018-03-15T22:20:11.842Z,34.80
2018-03-15T22:22:39.976Z,34.47
2018-03-15T22:25:08.274Z,33.73
2018-03-15T22:27:35.833Z,33.10
2018-03-15T22:30:03.341Z,34.40
2018-03-15T22:32:31.632Z,33.47
2018-03-15T22:34:59.169Z,33.73
2018-03-15T22:37:26.671Z,34.13
2018-03-15T22:39:54.977Z,33.27
2018-03-15T22:42:22.482Z,34.03
2018-03-15T22:44:51.006Z,34.00
2018-03-15T22:47:18.620Z,34.87
2018-03-15T22:49:46.216Z,34.03
2018-03-15T22:52:13.777Z,34.40
2018-03-15T22:54:41.289Z,33.73
2018-03-15T22:57:08.822Z,34.00
2018-03-15T22:59:36.336Z,34.60
2018-03-15T23:02:05.238Z,35.23
2018-03-15T23:04:32.760Z,34.60
2018-03-15T23:07:00.320Z,32.43
2018-03-15T23:09:27.929Z,34.07
2018-03-15T23:11:55.476Z,36.13
2018-03-15T23:14:23.767Z,35.47
2018-03-15T23:16:51.276Z,36.60
2018-03-15T23:19:19.438Z,36.17
2018-03-15T23:21:46.949Z,35.80
2018-03-15T23:24:15.248Z,34.00
2018-03-15T23:26:42.752Z,35.70
2018-03-15T23:29:10.261Z,35.40
2018-03-15T23:31:37.820Z,36.03
2018-03-15T23:34:05.380Z,34.27
2018-03-15T23:36:32.917Z,34.33
2018-03-15T23:39:01.882Z,35.50
2018-03-15T23:41:29.415Z,37.13
2018-03-15T23:43:56.925Z,35.53
2018-03-15T23:46:25.203Z,36.47
2018-03-15T23:48:53.493Z,35.97
2018-03-15T23:51:21.008Z,37.50
2018-03-15T23:53:48.533Z,36.93
2018-03-15T23:56:16.045Z,36.37
2018-03-15T23:58:43.649Z,36.17
